sensor_id;sensor_type;location;lat;lon;timestamp;P1;durP1;ratioP1;P2;durP2;ratioP2
22660;SDS011;11497;52.222;21.246;2022-07-21T00:00:23;14.20;;;9.30;;
22660;SDS011;11497;52.222;21.246;2022-07-21T00:03:06;14.35;;;9.30;;
22660;SDS011;11497;52.222;21.246;2022-07-21T00:05:34;14.60;;;8.70;;
22660;SDS011;11497;52.222;21.246;2022-07-21T00:08:02;15.05;;;8.77;;
22660;SDS011;11497;52.222;21.246;2022-07-21T00:10:31;14.45;;;8.77;;
22660;SDS011;11497;52.222;21.246;2022-07-21T00:12:59;16.90;;;9.38;;
22660;SDS011;11497;52.222;21.246;2022-07-21T00:15:27;14.73;;;9.23;;
22660;SDS011;11497;52.222;21.246;2022-07-21T00:17:56;18.25;;;9.25;;
22660;SDS011;11497;52.222;21.246;2022-07-21T00:20:25;15.85;;;9.38;;
22660;SDS011;11497;52.222;21.246;2022-07-21T00:22:59;13.88;;;8.65;;
22660;SDS011;11497;52.222;21.246;2022-07-21T00:25:27;13.20;;;8.50;;
22660;SDS011;11497;52.222;21.246;2022-07-21T00:28:01;19.90;;;9.32;;
22660;SDS011;11497;52.222;21.246;2022-07-21T00:30:30;13.77;;;8.65;;
22660;SDS011;11497;52.222;21.246;2022-07-21T00:32:58;17.42;;;8.82;;
22660;SDS011;11497;52.222;21.246;2022-07-21T00:35:26;17.42;;;9.68;;
22660;SDS011;11497;52.222;21.246;2022-07-21T00:37:54;16.35;;;9.20;;
22660;SDS011;11497;52.222;21.246;2022-07-21T00:40:22;14.25;;;9.15;;
22660;SDS011;11497;52.222;21.246;2022-07-21T00:42:50;13.52;;;8.88;;
22660;SDS011;11497;52.222;21.246;2022-07-21T00:45:18;13.90;;;8.88;;
22660;SDS011;11497;52.222;21.246;2022-07-21T00:47:46;13.43;;;8.93;;
22660;SDS011;11497;52.222;21.246;2022-07-21T00:50:15;15.32;;;9.05;;
22660;SDS011;11497;52.222;21.246;2022-07-21T00:52:46;15.15;;;9.30;;
22660;SDS011;11497;52.222;21.246;2022-07-21T00:55:18;15.80;;;9.52;;
22660;SDS011;11497;52.222;21.246;2022-07-21T00:57:49;15.60;;;9.75;;
22660;SDS011;11497;52.222;21.246;2022-07-21T01:00:23;15.00;;;9.48;;
22660;SDS011;11497;52.222;21.246;2022-07-21T01:02:54;15.60;;;8.88;;
22660;SDS011;11497;52.222;21.246;2022-07-21T01:05:24;16.70;;;9.65;;
22660;SDS011;11497;52.222;21.246;2022-07-21T01:07:52;17.25;;;9.60;;
22660;SDS011;11497;52.222;21.246;2022-07-21T01:10:23;19.02;;;9.63;;
22660;SDS011;11497;52.222;21.246;2022-07-21T01:12:51;17.58;;;9.77;;
22660;SDS011;11497;52.222;21.246;2022-07-21T01:15:19;19.33;;;10.18;;
22660;SDS011;11497;52.222;21.246;2022-07-21T01:17:48;19.38;;;10.27;;
22660;SDS011;11497;52.222;21.246;2022-07-21T01:20:17;15.07;;;10.02;;
22660;SDS011;11497;52.222;21.246;2022-07-21T01:22:49;16.38;;;9.57;;
22660;SDS011;11497;52.222;21.246;2022-07-21T01:25:20;14.45;;;9.38;;
22660;SDS011;11497;52.222;21.246;2022-07-21T01:27:48;13.15;;;9.43;;
22660;SDS011;11497;52.222;21.246;2022-07-21T01:30:16;11.65;;;8.77;;
22660;SDS011;11497;52.222;21.246;2022-07-21T01:32:44;13.40;;;8.93;;
22660;SDS011;11497;52.222;21.246;2022-07-21T01:35:13;13.35;;;9.68;;
22660;SDS011;11497;52.222;21.246;2022-07-21T01:37:43;14.38;;;9.18;;
22660;SDS011;11497;52.222;21.246;2022-07-21T01:40:13;13.65;;;9.40;;
22660;SDS011;11497;52.222;21.246;2022-07-21T01:43:01;15.10;;;9.55;;
22660;SDS011;11497;52.222;21.246;2022-07-21T01:45:37;16.33;;;9.25;;
22660;SDS011;11497;52.222;21.246;2022-07-21T01:48:05;13.57;;;9.13;;
22660;SDS011;11497;52.222;21.246;2022-07-21T01:50:33;12.85;;;9.02;;
22660;SDS011;11497;52.222;21.246;2022-07-21T01:53:01;13.20;;;9.10;;
22660;SDS011;11497;52.222;21.246;2022-07-21T01:55:29;12.32;;;8.80;;
22660;SDS011;11497;52.222;21.246;2022-07-21T01:57:57;12.80;;;8.35;;
22660;SDS011;11497;52.222;21.246;2022-07-21T02:00:28;14.05;;;9.10;;
22660;SDS011;11497;52.222;21.246;2022-07-21T02:02:56;14.32;;;9.40;;
22660;SDS011;11497;52.222;21.246;2022-07-21T02:05:23;13.27;;;8.27;;
22660;SDS011;11497;52.222;21.246;2022-07-21T02:07:51;12.88;;;8.52;;
22660;SDS011;11497;52.222;21.246;2022-07-21T02:10:19;13.23;;;8.55;;
22660;SDS011;11497;52.222;21.246;2022-07-21T02:12:47;12.63;;;9.20;;
22660;SDS011;11497;52.222;21.246;2022-07-21T02:15:15;11.93;;;8.65;;
22660;SDS011;11497;52.222;21.246;2022-07-21T02:17:43;13.13;;;8.65;;
22660;SDS011;11497;52.222;21.246;2022-07-21T02:20:11;12.88;;;8.90;;
22660;SDS011;11497;52.222;21.246;2022-07-21T02:22:38;11.13;;;8.55;;
22660;SDS011;11497;52.222;21.246;2022-07-21T02:25:07;11.60;;;8.60;;
22660;SDS011;11497;52.222;21.246;2022-07-21T02:27:35;15.38;;;9.07;;
22660;SDS011;11497;52.222;21.246;2022-07-21T02:30:03;10.35;;;8.27;;
22660;SDS011;11497;52.222;21.246;2022-07-21T02:32:31;13.57;;;8.65;;
22660;SDS011;11497;52.222;21.246;2022-07-21T02:34:59;13.68;;;8.40;;
22660;SDS011;11497;52.222;21.246;2022-07-21T02:37:27;15.50;;;8.85;;
22660;SDS011;11497;52.222;21.246;2022-07-21T02:39:55;12.88;;;9.05;;
22660;SDS011;11497;52.222;21.246;2022-07-21T02:42:23;13.50;;;9.00;;
22660;SDS011;11497;52.222;21.246;2022-07-21T02:44:51;13.45;;;8.82;;
22660;SDS011;11497;52.222;21.246;2022-07-21T02:47:20;17.15;;;9.18;;
22660;SDS011;11497;52.222;21.246;2022-07-21T02:49:48;16.42;;;8.98;;
22660;SDS011;11497;52.222;21.246;2022-07-21T02:52:17;16.13;;;8.57;;
22660;SDS011;11497;52.222;21.246;2022-07-21T02:54:47;15.60;;;8.30;;
22660;SDS011;11497;52.222;21.246;2022-07-21T02:57:15;12.35;;;8.27;;
22660;SDS011;11497;52.222;21.246;2022-07-21T02:59:43;15.48;;;8.77;;
22660;SDS011;11497;52.222;21.246;2022-07-21T03:02:11;14.27;;;8.88;;
22660;SDS011;11497;52.222;21.246;2022-07-21T03:04:38;14.95;;;8.55;;
22660;SDS011;11497;52.222;21.246;2022-07-21T03:07:06;14.05;;;8.40;;
22660;SDS011;11497;52.222;21.246;2022-07-21T03:09:34;11.27;;;7.78;;
22660;SDS011;11497;52.222;21.246;2022-07-21T03:12:02;12.77;;;8.32;;
22660;SDS011;11497;52.222;21.246;2022-07-21T03:14:30;11.43;;;8.90;;
22660;SDS011;11497;52.222;21.246;2022-07-21T03:16:58;13.13;;;8.55;;
22660;SDS011;11497;52.222;21.246;2022-07-21T03:19:27;9.27;;;7.78;;
22660;SDS011;11497;52.222;21.246;2022-07-21T03:21:55;17.15;;;8.30;;
22660;SDS011;11497;52.222;21.246;2022-07-21T03:24:23;17.85;;;8.98;;
22660;SDS011;11497;52.222;21.246;2022-07-21T03:26:51;13.73;;;8.60;;
22660;SDS011;11497;52.222;21.246;2022-07-21T03:29:19;13.55;;;8.48;;
22660;SDS011;11497;52.222;21.246;2022-07-21T03:31:47;14.30;;;8.80;;
22660;SDS011;11497;52.222;21.246;2022-07-21T03:34:15;12.25;;;8.75;;
22660;SDS011;11497;52.222;21.246;2022-07-21T03:36:42;14.35;;;8.55;;
22660;SDS011;11497;52.222;21.246;2022-07-21T03:39:10;12.73;;;8.70;;
22660;SDS011;11497;52.222;21.246;2022-07-21T03:41:38;13.27;;;9.20;;
22660;SDS011;11497;52.222;21.246;2022-07-21T03:44:06;13.52;;;8.68;;
22660;SDS011;11497;52.222;21.246;2022-07-21T03:46:34;12.43;;;8.45;;
22660;SDS011;11497;52.222;21.246;2022-07-21T03:49:02;16.48;;;9.85;;
22660;SDS011;11497;52.222;21.246;2022-07-21T03:51:30;13.15;;;8.98;;
22660;SDS011;11497;52.222;21.246;2022-07-21T03:53:58;14.60;;;9.20;;
22660;SDS011;11497;52.222;21.246;2022-07-21T03:56:25;13.20;;;9.10;;
22660;SDS011;11497;52.222;21.246;2022-07-21T03:58:53;14.63;;;9.82;;
22660;SDS011;11497;52.222;21.246;2022-07-21T04:01:22;19.90;;;10.30;;
22660;SDS011;11497;52.222;21.246;2022-07-21T04:03:50;15.10;;;9.48;;
22660;SDS011;11497;52.222;21.246;2022-07-21T04:06:18;15.00;;;9.43;;
22660;SDS011;11497;52.222;21.246;2022-07-21T04:08:46;14.82;;;8.98;;
22660;SDS011;11497;52.222;21.246;2022-07-21T04:11:13;14.10;;;8.90;;
22660;SDS011;11497;52.222;21.246;2022-07-21T04:13:41;15.75;;;9.98;;
22660;SDS011;11497;52.222;21.246;2022-07-21T04:16:09;13.95;;;9.10;;
22660;SDS011;11497;52.222;21.246;2022-07-21T04:18:37;13.13;;;9.05;;
22660;SDS011;11497;52.222;21.246;2022-07-21T04:21:05;13.20;;;8.77;;
22660;SDS011;11497;52.222;21.246;2022-07-21T04:23:33;11.13;;;8.73;;
22660;SDS011;11497;52.222;21.246;2022-07-21T04:26:01;15.23;;;7.95;;
22660;SDS011;11497;52.222;21.246;2022-07-21T04:28:29;11.60;;;7.68;;
22660;SDS011;11497;52.222;21.246;2022-07-21T04:30:57;12.40;;;7.60;;
22660;SDS011;11497;52.222;21.246;2022-07-21T04:33:25;9.35;;;7.43;;
22660;SDS011;11497;52.222;21.246;2022-07-21T04:35:53;14.70;;;7.45;;
22660;SDS011;11497;52.222;21.246;2022-07-21T04:38:21;10.93;;;6.32;;
22660;SDS011;11497;52.222;21.246;2022-07-21T04:40:48;8.63;;;6.72;;
22660;SDS011;11497;52.222;21.246;2022-07-21T04:43:16;13.45;;;6.53;;
22660;SDS011;11497;52.222;21.246;2022-07-21T04:45:44;7.85;;;6.03;;
22660;SDS011;11497;52.222;21.246;2022-07-21T04:48:12;10.23;;;6.05;;
22660;SDS011;11497;52.222;21.246;2022-07-21T04:50:40;7.80;;;5.30;;
22660;SDS011;11497;52.222;21.246;2022-07-21T04:53:08;8.55;;;5.75;;
22660;SDS011;11497;52.222;21.246;2022-07-21T04:55:37;9.35;;;5.10;;
22660;SDS011;11497;52.222;21.246;2022-07-21T04:58:05;6.25;;;4.95;;
22660;SDS011;11497;52.222;21.246;2022-07-21T05:00:34;8.57;;;5.30;;
22660;SDS011;11497;52.222;21.246;2022-07-21T05:03:01;8.20;;;4.80;;
22660;SDS011;11497;52.222;21.246;2022-07-21T05:05:29;8.02;;;4.50;;
22660;SDS011;11497;52.222;21.246;2022-07-21T05:07:57;7.70;;;4.30;;
22660;SDS011;11497;52.222;21.246;2022-07-21T05:10:25;5.82;;;4.28;;
22660;SDS011;11497;52.222;21.246;2022-07-21T05:12:53;7.32;;;4.15;;
22660;SDS011;11497;52.222;21.246;2022-07-21T05:15:21;8.75;;;4.50;;
22660;SDS011;11497;52.222;21.246;2022-07-21T05:17:48;7.97;;;4.63;;
22660;SDS011;11497;52.222;21.246;2022-07-21T05:20:16;4.63;;;3.72;;
22660;SDS011;11497;52.222;21.246;2022-07-21T05:22:44;7.97;;;4.05;;
22660;SDS011;11497;52.222;21.246;2022-07-21T05:25:12;5.38;;;3.75;;
22660;SDS011;11497;52.222;21.246;2022-07-21T05:27:40;6.53;;;4.20;;
22660;SDS011;11497;52.222;21.246;2022-07-21T05:30:08;6.80;;;3.55;;
22660;SDS011;11497;52.222;21.246;2022-07-21T05:32:36;6.53;;;3.60;;
22660;SDS011;11497;52.222;21.246;2022-07-21T05:35:13;5.10;;;3.40;;
22660;SDS011;11497;52.222;21.246;2022-07-21T05:37:41;4.70;;;3.58;;
22660;SDS011;11497;52.222;21.246;2022-07-21T05:40:09;6.80;;;3.55;;
22660;SDS011;11497;52.222;21.246;2022-07-21T05:42:38;6.35;;;3.40;;
22660;SDS011;11497;52.222;21.246;2022-07-21T05:45:06;6.25;;;3.72;;
22660;SDS011;11497;52.222;21.246;2022-07-21T05:47:35;5.45;;;3.50;;
22660;SDS011;11497;52.222;21.246;2022-07-21T05:50:03;4.63;;;3.40;;
22660;SDS011;11497;52.222;21.246;2022-07-21T05:52:31;4.72;;;3.28;;
22660;SDS011;11497;52.222;21.246;2022-07-21T05:54:59;8.77;;;3.40;;
22660;SDS011;11497;52.222;21.246;2022-07-21T05:57:27;6.18;;;3.22;;
22660;SDS011;11497;52.222;21.246;2022-07-21T05:59:55;4.75;;;3.03;;
22660;SDS011;11497;52.222;21.246;2022-07-21T06:02:24;9.10;;;3.00;;
22660;SDS011;11497;52.222;21.246;2022-07-21T06:04:53;6.45;;;3.03;;
22660;SDS011;11497;52.222;21.246;2022-07-21T06:07:20;5.13;;;3.10;;
22660;SDS011;11497;52.222;21.246;2022-07-21T06:09:49;4.22;;;2.83;;
22660;SDS011;11497;52.222;21.246;2022-07-21T06:12:17;5.43;;;2.90;;
22660;SDS011;11497;52.222;21.246;2022-07-21T06:14:45;3.25;;;2.25;;
22660;SDS011;11497;52.222;21.246;2022-07-21T06:17:12;5.25;;;2.60;;
22660;SDS011;11497;52.222;21.246;2022-07-21T06:19:41;4.00;;;2.90;;
22660;SDS011;11497;52.222;21.246;2022-07-21T06:22:08;3.58;;;2.80;;
22660;SDS011;11497;52.222;21.246;2022-07-21T06:24:36;7.32;;;2.58;;
22660;SDS011;11497;52.222;21.246;2022-07-21T06:27:04;2.67;;;2.42;;
22660;SDS011;11497;52.222;21.246;2022-07-21T06:29:32;6.85;;;2.40;;
22660;SDS011;11497;52.222;21.246;2022-07-21T06:32:00;3.42;;;2.55;;
22660;SDS011;11497;52.222;21.246;2022-07-21T06:34:28;3.22;;;2.47;;
22660;SDS011;11497;52.222;21.246;2022-07-21T06:36:56;3.15;;;2.50;;
22660;SDS011;11497;52.222;21.246;2022-07-21T06:39:24;4.28;;;2.70;;
22660;SDS011;11497;52.222;21.246;2022-07-21T06:41:52;6.18;;;2.50;;
22660;SDS011;11497;52.222;21.246;2022-07-21T06:44:20;3.72;;;2.28;;
22660;SDS011;11497;52.222;21.246;2022-07-21T06:46:48;3.70;;;2.20;;
22660;SDS011;11497;52.222;21.246;2022-07-21T06:49:16;4.03;;;1.95;;
22660;SDS011;11497;52.222;21.246;2022-07-21T06:51:43;4.00;;;2.40;;
22660;SDS011;11497;52.222;21.246;2022-07-21T06:54:11;4.40;;;1.98;;
22660;SDS011;11497;52.222;21.246;2022-07-21T06:56:39;8.73;;;2.42;;
22660;SDS011;11497;52.222;21.246;2022-07-21T06:59:07;4.07;;;1.88;;
22660;SDS011;11497;52.222;21.246;2022-07-21T07:01:34;3.90;;;1.92;;
22660;SDS011;11497;52.222;21.246;2022-07-21T07:04:03;3.80;;;2.03;;
22660;SDS011;11497;52.222;21.246;2022-07-21T07:06:31;3.92;;;2.40;;
22660;SDS011;11497;52.222;21.246;2022-07-21T07:08:59;3.95;;;2.03;;
22660;SDS011;11497;52.222;21.246;2022-07-21T07:11:27;4.47;;;2.22;;
22660;SDS011;11497;52.222;21.246;2022-07-21T07:13:55;2.28;;;2.00;;
22660;SDS011;11497;52.222;21.246;2022-07-21T07:16:34;6.40;;;2.33;;
22660;SDS011;11497;52.222;21.246;2022-07-21T07:19:02;2.95;;;1.85;;
22660;SDS011;11497;52.222;21.246;2022-07-21T07:21:30;2.72;;;1.70;;
22660;SDS011;11497;52.222;21.246;2022-07-21T07:23:58;5.75;;;1.80;;
22660;SDS011;11497;52.222;21.246;2022-07-21T07:26:26;3.72;;;1.70;;
22660;SDS011;11497;52.222;21.246;2022-07-21T07:28:54;3.03;;;1.80;;
22660;SDS011;11497;52.222;21.246;2022-07-21T07:31:22;7.22;;;1.80;;
22660;SDS011;11497;52.222;21.246;2022-07-21T07:33:50;3.42;;;2.10;;
22660;SDS011;11497;52.222;21.246;2022-07-21T07:36:18;3.25;;;1.52;;
22660;SDS011;11497;52.222;21.246;2022-07-21T07:38:46;4.20;;;1.50;;
22660;SDS011;11497;52.222;21.246;2022-07-21T07:41:15;4.05;;;1.90;;
22660;SDS011;11497;52.222;21.246;2022-07-21T07:43:42;4.18;;;1.90;;
22660;SDS011;11497;52.222;21.246;2022-07-21T07:46:10;3.35;;;1.77;;
22660;SDS011;11497;52.222;21.246;2022-07-21T07:48:39;2.13;;;1.70;;
22660;SDS011;11497;52.222;21.246;2022-07-21T07:51:09;6.63;;;1.75;;
22660;SDS011;11497;52.222;21.246;2022-07-21T07:53:39;2.95;;;1.60;;
22660;SDS011;11497;52.222;21.246;2022-07-21T07:56:07;4.88;;;1.70;;
22660;SDS011;11497;52.222;21.246;2022-07-21T07:58:35;1.85;;;1.50;;
22660;SDS011;11497;52.222;21.246;2022-07-21T08:01:03;8.70;;;1.60;;
22660;SDS011;11497;52.222;21.246;2022-07-21T08:03:34;4.07;;;1.60;;
22660;SDS011;11497;52.222;21.246;2022-07-21T08:06:03;4.65;;;1.98;;
22660;SDS011;11497;52.222;21.246;2022-07-21T08:08:33;8.18;;;1.70;;
22660;SDS011;11497;52.222;21.246;2022-07-21T08:11:01;5.63;;;1.98;;
22660;SDS011;11497;52.222;21.246;2022-07-21T08:13:29;2.30;;;1.80;;
22660;SDS011;11497;52.222;21.246;2022-07-21T08:15:57;3.17;;;1.70;;
22660;SDS011;11497;52.222;21.246;2022-07-21T08:18:25;1.85;;;1.60;;
22660;SDS011;11497;52.222;21.246;2022-07-21T08:20:54;5.00;;;1.67;;
22660;SDS011;11497;52.222;21.246;2022-07-21T08:23:22;5.35;;;1.80;;
22660;SDS011;11497;52.222;21.246;2022-07-21T08:25:49;5.00;;;1.33;;
22660;SDS011;11497;52.222;21.246;2022-07-21T08:28:18;6.50;;;1.52;;
22660;SDS011;11497;52.222;21.246;2022-07-21T08:30:46;3.80;;;1.60;;
22660;SDS011;11497;52.222;21.246;2022-07-21T08:33:14;2.10;;;1.60;;
22660;SDS011;11497;52.222;21.246;2022-07-21T08:35:41;5.60;;;1.70;;
22660;SDS011;11497;52.222;21.246;2022-07-21T08:38:10;3.83;;;1.70;;
22660;SDS011;11497;52.222;21.246;2022-07-21T08:40:40;6.00;;;2.03;;
22660;SDS011;11497;52.222;21.246;2022-07-21T08:43:10;2.13;;;1.60;;
22660;SDS011;11497;52.222;21.246;2022-07-21T08:45:40;6.32;;;1.65;;
22660;SDS011;11497;52.222;21.246;2022-07-21T08:48:08;5.07;;;1.75;;
22660;SDS011;11497;52.222;21.246;2022-07-21T08:50:38;6.32;;;1.52;;
22660;SDS011;11497;52.222;21.246;2022-07-21T08:53:06;7.05;;;1.65;;
22660;SDS011;11497;52.222;21.246;2022-07-21T08:55:35;3.90;;;1.35;;
22660;SDS011;11497;52.222;21.246;2022-07-21T09:00:36;4.40;;;1.80;;
22660;SDS011;11497;52.222;21.246;2022-07-21T09:05:39;1.92;;;1.73;;
22660;SDS011;11497;52.222;21.246;2022-07-21T09:08:08;3.63;;;1.80;;
22660;SDS011;11497;52.222;21.246;2022-07-21T09:10:36;2.80;;;1.65;;
22660;SDS011;11497;52.222;21.246;2022-07-21T09:13:05;4.95;;;1.60;;
22660;SDS011;11497;52.222;21.246;2022-07-21T09:15:34;3.38;;;1.83;;
22660;SDS011;11497;52.222;21.246;2022-07-21T09:18:04;5.28;;;1.60;;
22660;SDS011;11497;52.222;21.246;2022-07-21T09:20:49;2.08;;;1.40;;
22660;SDS011;11497;52.222;21.246;2022-07-21T09:23:22;3.65;;;1.50;;
22660;SDS011;11497;52.222;21.246;2022-07-21T09:25:52;1.50;;;1.40;;
22660;SDS011;11497;52.222;21.246;2022-07-21T09:28:25;6.50;;;2.25;;
22660;SDS011;11497;52.222;21.246;2022-07-21T09:31:02;3.40;;;2.65;;
22660;SDS011;11497;52.222;21.246;2022-07-21T09:33:43;2.47;;;1.60;;
22660;SDS011;11497;52.222;21.246;2022-07-21T09:36:14;3.63;;;1.75;;
22660;SDS011;11497;52.222;21.246;2022-07-21T09:38:44;2.30;;;1.50;;
22660;SDS011;11497;52.222;21.246;2022-07-21T09:41:19;1.85;;;1.67;;
22660;SDS011;11497;52.222;21.246;2022-07-21T09:43:51;2.97;;;1.77;;
22660;SDS011;11497;52.222;21.246;2022-07-21T09:46:25;5.28;;;2.03;;
22660;SDS011;11497;52.222;21.246;2022-07-21T09:48:58;3.05;;;1.60;;
22660;SDS011;11497;52.222;21.246;2022-07-21T09:51:48;2.70;;;1.70;;
22660;SDS011;11497;52.222;21.246;2022-07-21T09:54:16;4.35;;;1.95;;
22660;SDS011;11497;52.222;21.246;2022-07-21T09:56:44;4.80;;;1.67;;
22660;SDS011;11497;52.222;21.246;2022-07-21T09:59:14;5.72;;;1.95;;
22660;SDS011;11497;52.222;21.246;2022-07-21T10:01:42;3.75;;;1.60;;
22660;SDS011;11497;52.222;21.246;2022-07-21T10:04:11;2.70;;;1.58;;
22660;SDS011;11497;52.222;21.246;2022-07-21T10:06:40;3.80;;;1.60;;
22660;SDS011;11497;52.222;21.246;2022-07-21T10:09:10;4.03;;;1.60;;
22660;SDS011;11497;52.222;21.246;2022-07-21T10:11:38;2.78;;;1.70;;
22660;SDS011;11497;52.222;21.246;2022-07-21T10:14:10;6.22;;;2.00;;
22660;SDS011;11497;52.222;21.246;2022-07-21T10:16:39;5.05;;;1.60;;
22660;SDS011;11497;52.222;21.246;2022-07-21T10:22:10;6.65;;;1.80;;
22660;SDS011;11497;52.222;21.246;2022-07-21T10:24:42;4.07;;;2.03;;
22660;SDS011;11497;52.222;21.246;2022-07-21T10:27:11;7.20;;;1.83;;
22660;SDS011;11497;52.222;21.246;2022-07-21T10:29:49;3.22;;;2.00;;
22660;SDS011;11497;52.222;21.246;2022-07-21T10:33:08;3.03;;;1.90;;
22660;SDS011;11497;52.222;21.246;2022-07-21T10:35:37;2.67;;;2.30;;
22660;SDS011;11497;52.222;21.246;2022-07-21T10:40:59;3.25;;;2.40;;
22660;SDS011;11497;52.222;21.246;2022-07-21T10:45:58;3.75;;;2.30;;
22660;SDS011;11497;52.222;21.246;2022-07-21T10:51:10;4.82;;;2.08;;
22660;SDS011;11497;52.222;21.246;2022-07-21T10:53:40;2.85;;;2.40;;
22660;SDS011;11497;52.222;21.246;2022-07-21T10:56:08;2.25;;;2.03;;
22660;SDS011;11497;52.222;21.246;2022-07-21T10:58:54;4.03;;;2.25;;
22660;SDS011;11497;52.222;21.246;2022-07-21T11:01:22;4.30;;;2.25;;
22660;SDS011;11497;52.222;21.246;2022-07-21T11:06:37;5.93;;;2.30;;
22660;SDS011;11497;52.222;21.246;2022-07-21T11:12:01;4.13;;;2.35;;
22660;SDS011;11497;52.222;21.246;2022-07-21T11:14:34;5.47;;;2.42;;
22660;SDS011;11497;52.222;21.246;2022-07-21T11:17:09;5.18;;;2.08;;
22660;SDS011;11497;52.222;21.246;2022-07-21T11:19:51;3.70;;;2.20;;
22660;SDS011;11497;52.222;21.246;2022-07-21T11:22:21;5.68;;;2.33;;
22660;SDS011;11497;52.222;21.246;2022-07-21T11:27:25;5.63;;;2.70;;
22660;SDS011;11497;52.222;21.246;2022-07-21T11:29:56;6.95;;;2.15;;
22660;SDS011;11497;52.222;21.246;2022-07-21T11:32:26;3.72;;;2.17;;
22660;SDS011;11497;52.222;21.246;2022-07-21T11:34:57;4.00;;;2.40;;
22660;SDS011;11497;52.222;21.246;2022-07-21T11:37:34;5.78;;;2.17;;
22660;SDS011;11497;52.222;21.246;2022-07-21T11:42:37;4.65;;;2.30;;
22660;SDS011;11497;52.222;21.246;2022-07-21T11:45:05;3.88;;;2.13;;
22660;SDS011;11497;52.222;21.246;2022-07-21T11:47:34;4.68;;;2.53;;
22660;SDS011;11497;52.222;21.246;2022-07-21T11:50:04;5.32;;;2.30;;
22660;SDS011;11497;52.222;21.246;2022-07-21T11:52:34;4.75;;;2.58;;
22660;SDS011;11497;52.222;21.246;2022-07-21T11:55:05;5.22;;;2.67;;
22660;SDS011;11497;52.222;21.246;2022-07-21T11:57:35;4.10;;;2.00;;
22660;SDS011;11497;52.222;21.246;2022-07-21T12:00:07;3.13;;;2.30;;
22660;SDS011;11497;52.222;21.246;2022-07-21T12:02:39;5.80;;;2.30;;
22660;SDS011;11497;52.222;21.246;2022-07-21T12:05:07;6.28;;;2.78;;
22660;SDS011;11497;52.222;21.246;2022-07-21T12:07:43;4.68;;;2.30;;
22660;SDS011;11497;52.222;21.246;2022-07-21T12:10:26;6.50;;;2.60;;
22660;SDS011;11497;52.222;21.246;2022-07-21T12:13:00;4.15;;;2.60;;
22660;SDS011;11497;52.222;21.246;2022-07-21T12:15:33;3.85;;;2.20;;
22660;SDS011;11497;52.222;21.246;2022-07-21T12:18:08;5.90;;;2.50;;
22660;SDS011;11497;52.222;21.246;2022-07-21T12:20:51;3.75;;;2.17;;
22660;SDS011;11497;52.222;21.246;2022-07-21T12:23:31;4.43;;;2.35;;
22660;SDS011;11497;52.222;21.246;2022-07-21T12:26:02;2.58;;;2.22;;
22660;SDS011;11497;52.222;21.246;2022-07-21T12:28:41;5.50;;;2.35;;
22660;SDS011;11497;52.222;21.246;2022-07-21T12:31:15;7.93;;;2.78;;
22660;SDS011;11497;52.222;21.246;2022-07-21T12:33:54;4.63;;;2.60;;
22660;SDS011;11497;52.222;21.246;2022-07-21T12:36:44;4.88;;;2.75;;
22660;SDS011;11497;52.222;21.246;2022-07-21T12:39:15;5.97;;;2.40;;
22660;SDS011;11497;52.222;21.246;2022-07-21T12:42:34;6.38;;;2.38;;
22660;SDS011;11497;52.222;21.246;2022-07-21T12:45:12;3.70;;;2.30;;
22660;SDS011;11497;52.222;21.246;2022-07-21T12:50:38;3.97;;;2.50;;
22660;SDS011;11497;52.222;21.246;2022-07-21T12:53:08;6.93;;;2.58;;
22660;SDS011;11497;52.222;21.246;2022-07-21T12:55:39;5.90;;;2.60;;
22660;SDS011;11497;52.222;21.246;2022-07-21T12:58:08;3.63;;;2.40;;
22660;SDS011;11497;52.222;21.246;2022-07-21T13:00:37;4.68;;;2.58;;
22660;SDS011;11497;52.222;21.246;2022-07-21T13:03:07;6.40;;;2.47;;
22660;SDS011;11497;52.222;21.246;2022-07-21T13:05:36;10.13;;;2.90;;
22660;SDS011;11497;52.222;21.246;2022-07-21T13:08:08;3.22;;;2.40;;
22660;SDS011;11497;52.222;21.246;2022-07-21T13:10:37;6.15;;;2.67;;
22660;SDS011;11497;52.222;21.246;2022-07-21T13:13:06;8.82;;;3.22;;
22660;SDS011;11497;52.222;21.246;2022-07-21T13:15:38;3.58;;;2.60;;
22660;SDS011;11497;52.222;21.246;2022-07-21T13:18:06;6.30;;;2.80;;
22660;SDS011;11497;52.222;21.246;2022-07-21T13:20:35;6.43;;;2.67;;
22660;SDS011;11497;52.222;21.246;2022-07-21T13:23:05;4.20;;;2.72;;
22660;SDS011;11497;52.222;21.246;2022-07-21T13:25:33;7.22;;;2.80;;
22660;SDS011;11497;52.222;21.246;2022-07-21T13:28:02;4.00;;;2.67;;
22660;SDS011;11497;52.222;21.246;2022-07-21T13:30:31;7.57;;;2.80;;
22660;SDS011;11497;52.222;21.246;2022-07-21T13:33:08;6.93;;;2.85;;
22660;SDS011;11497;52.222;21.246;2022-07-21T13:35:37;5.60;;;2.92;;
22660;SDS011;11497;52.222;21.246;2022-07-21T13:38:07;5.78;;;3.10;;
22660;SDS011;11497;52.222;21.246;2022-07-21T13:40:36;4.40;;;2.25;;
22660;SDS011;11497;52.222;21.246;2022-07-21T13:43:25;5.03;;;2.78;;
22660;SDS011;11497;52.222;21.246;2022-07-21T13:46:05;7.55;;;2.78;;
22660;SDS011;11497;52.222;21.246;2022-07-21T13:48:34;8.57;;;2.30;;
22660;SDS011;11497;52.222;21.246;2022-07-21T13:51:14;8.50;;;2.72;;
22660;SDS011;11497;52.222;21.246;2022-07-21T13:53:44;8.85;;;3.20;;
22660;SDS011;11497;52.222;21.246;2022-07-21T13:56:15;7.93;;;2.88;;
22660;SDS011;11497;52.222;21.246;2022-07-21T13:58:44;5.28;;;2.40;;
22660;SDS011;11497;52.222;21.246;2022-07-21T14:01:12;4.50;;;2.72;;
22660;SDS011;11497;52.222;21.246;2022-07-21T14:03:42;4.43;;;3.08;;
22660;SDS011;11497;52.222;21.246;2022-07-21T14:06:11;6.18;;;2.53;;
22660;SDS011;11497;52.222;21.246;2022-07-21T14:08:39;5.63;;;2.80;;
22660;SDS011;11497;52.222;21.246;2022-07-21T14:11:09;5.22;;;2.40;;
22660;SDS011;11497;52.222;21.246;2022-07-21T14:13:40;6.78;;;2.75;;
22660;SDS011;11497;52.222;21.246;2022-07-21T14:16:11;5.47;;;2.78;;
22660;SDS011;11497;52.222;21.246;2022-07-21T14:18:41;5.70;;;2.85;;
22660;SDS011;11497;52.222;21.246;2022-07-21T14:21:10;10.25;;;3.20;;
22660;SDS011;11497;52.222;21.246;2022-07-21T14:23:40;7.85;;;2.92;;
22660;SDS011;11497;52.222;21.246;2022-07-21T14:26:09;7.43;;;3.03;;
22660;SDS011;11497;52.222;21.246;2022-07-21T14:28:37;3.67;;;2.67;;
22660;SDS011;11497;52.222;21.246;2022-07-21T14:31:06;3.35;;;2.75;;
22660;SDS011;11497;52.222;21.246;2022-07-21T14:33:34;6.72;;;2.90;;
22660;SDS011;11497;52.222;21.246;2022-07-21T14:36:03;8.02;;;3.00;;
22660;SDS011;11497;52.222;21.246;2022-07-21T14:38:32;9.27;;;3.55;;
22660;SDS011;11497;52.222;21.246;2022-07-21T14:41:00;6.93;;;3.20;;
22660;SDS011;11497;52.222;21.246;2022-07-21T14:43:29;4.13;;;2.60;;
22660;SDS011;11497;52.222;21.246;2022-07-21T14:45:58;7.18;;;3.10;;
22660;SDS011;11497;52.222;21.246;2022-07-21T14:48:27;8.02;;;3.30;;
22660;SDS011;11497;52.222;21.246;2022-07-21T14:50:55;7.80;;;3.00;;
22660;SDS011;11497;52.222;21.246;2022-07-21T14:53:24;7.90;;;2.90;;
22660;SDS011;11497;52.222;21.246;2022-07-21T14:55:52;4.15;;;2.80;;
22660;SDS011;11497;52.222;21.246;2022-07-21T14:58:20;8.35;;;3.10;;
22660;SDS011;11497;52.222;21.246;2022-07-21T15:00:50;4.45;;;2.63;;
22660;SDS011;11497;52.222;21.246;2022-07-21T15:03:19;9.18;;;2.80;;
22660;SDS011;11497;52.222;21.246;2022-07-21T15:05:48;8.70;;;2.95;;
22660;SDS011;11497;52.222;21.246;2022-07-21T15:08:17;8.27;;;3.05;;
22660;SDS011;11497;52.222;21.246;2022-07-21T15:10:46;7.10;;;3.20;;
22660;SDS011;11497;52.222;21.246;2022-07-21T15:13:16;6.22;;;3.03;;
22660;SDS011;11497;52.222;21.246;2022-07-21T15:15:45;4.30;;;2.90;;